Meteorología y climatología de Navarra
Datos de la estación - Meteo Navarra

Estación de Arangoiti GN

Altitud 1353 m.


Datos desde el 10/10/2019 hasta el 11/10/2019 en horario solar
Los datos son PROVISIONALES

Anterior Página 1 de 1 Siguiente Descargar: Formato para Excel 2000 o superior   Formato csv   Formato para OpenOffice Calc
Fecha Temperatura Humedad relativa Radiación global Insolación Precipitación Vel. viento 10 m Vel. viento 10 m Dir. viento 10 m
ºC % W/m² s l/m² m/s km/h º
10/10/2019 0:00 5.2 94 0.0 0 0.0 12.0 43.3 9
10/10/2019 0:10 5.6 95 0.0 0 0.0 12.7 45.8 9
10/10/2019 0:20 5.4 93 0.0 0 0.0 13.2 47.4 8
10/10/2019 0:30 6.0 93 0.0 0 0.0 13.4 48.3 6
10/10/2019 0:40 5.7 92 0.0 0 0.0 12.5 45.0 9
10/10/2019 0:50 5.4 92 0.0 0 0.0 11.3 40.6 9
10/10/2019 1:00 5.3 92 0.0 0 0.0 12.5 44.9 7
10/10/2019 1:10 5.8 91 0.0 0 0.0 11.4 41.1 7
10/10/2019 1:20 5.3 90 0.0 0 0.0 11.3 40.6 7
10/10/2019 1:30 5.5 90 0.0 0 0.0 11.3 40.8 7
10/10/2019 1:40 5.2 96 0.0 0 0.0 11.2 40.3 4
10/10/2019 1:50 5.2 99 0.0 0 0.0 11.7 41.9 3
10/10/2019 2:00 5.5 100 0.0 0 0.0 12.8 46.1 1
10/10/2019 2:10 5.4 100 0.0 0 0.0 12.9 46.5 1
10/10/2019 2:20 5.1 99 0.0 0 0.0 12.5 44.8 1
10/10/2019 2:30 4.9 100 0.0 0 0.0 12.8 45.9 2
10/10/2019 2:40 5.2 100 0.0 0 0.0 13.6 48.8 2
10/10/2019 2:50 5.4 100 0.0 0 0.0 13.3 47.9 3
10/10/2019 3:00 5.4 100 0.0 0 0.0 13.2 47.7 4
10/10/2019 3:10 5.3 100 0.0 0 0.0 12.1 43.5 4
10/10/2019 3:20 6.0 100 0.0 0 0.0 10.6 38.0 4
10/10/2019 3:30 5.6 100 0.0 0 0.0 10.5 37.9 2
10/10/2019 3:40 5.2 100 0.0 0 0.0 11.7 42.1 2
10/10/2019 3:50 5.6 100 0.0 0 0.0 12.6 45.4 3
10/10/2019 4:00 5.3 100 0.0 0 0.0 11.7 42.0 2
10/10/2019 4:10 4.9 100 0.0 0 0.0 12.1 43.5 1
10/10/2019 4:20 5.5 100 0.0 0 0.0 11.1 40.1 2
10/10/2019 4:30 5.6 100 0.0 0 0.0 10.3 37.0 4
10/10/2019 4:40 5.2 100 0.0 0 0.0 10.2 36.7 5
10/10/2019 4:50 4.5 100 0.0 0 0.0 10.0 36.1 3
10/10/2019 5:00 5.3 100 0.0 0 0.0 9.6 34.4 4
10/10/2019 5:10 4.9 100 0.0 0 0.0 9.2 33.3 4
10/10/2019 5:20 4.9 100 0.0 0 0.0 8.7 31.4 5
10/10/2019 5:30 4.8 100 0.0 0 0.0 8.7 31.4 6
10/10/2019 5:40 4.9 100 0.0 0 0.0 8.7 31.4 9
10/10/2019 5:50 4.9 99 0.0 0 0.0 8.2 29.4 11
10/10/2019 6:00 4.9 97 0.0 0 0.0 7.8 28.0 18
10/10/2019 6:10 5.4 96 2.4 0 0.0 8.7 31.5 20
10/10/2019 6:20 4.9 96 19.9 0 0.0 8.9 32.1 19
10/10/2019 6:30 5.1 95 33.5 412 0.0 8.5 30.6 21
10/10/2019 6:40 5.3 94 49.6 600 0.0 8.5 30.6 22
10/10/2019 6:50 5.7 90 75.2 600 0.0 7.4 26.7 21
10/10/2019 7:00 5.9 88 106.1 600 0.0 6.8 24.3 21
10/10/2019 7:10 5.4 89 135.8 600 0.0 7.3 26.4 21
10/10/2019 7:20 5.5 89 166.2 600 0.0 7.4 26.6 18
10/10/2019 7:30 5.8 90 197.4 600 0.0 7.1 25.6 21
10/10/2019 7:40 6.0 89 228.5 600 0.0 7.5 26.9 23
10/10/2019 7:50 6.0 87 260.3 600 0.0 7.9 28.3 27
10/10/2019 8:00 6.6 85 291.8 600 0.0 7.9 28.3 30
10/10/2019 8:10 6.6 84 323.0 600 0.0 6.8 24.6 29
10/10/2019 8:20 6.6 83 353.7 600 0.0 6.6 23.6 30
10/10/2019 8:30 6.9 82 383.4 600 0.0 6.0 21.7 36
10/10/2019 8:40 7.5 78 411.8 600 0.0 6.2 22.2 37
10/10/2019 8:50 7.7 78 438.7 600 0.0 6.5 23.3 37
10/10/2019 9:00 8.3 76 171.7 168 0.0 5.4 19.5 44
10/10/2019 9:10 8.3 73 481.9 600 0.0 4.8 17.1 46
10/10/2019 9:20 8.5 74 513.7 600 0.0 4.6 16.7 40
10/10/2019 9:30 8.6 74 535.9 600 0.0 3.4 12.3 38
10/10/2019 9:40 9.4 74 557.2 600 0.0 2.8 10.2 36
10/10/2019 9:50 9.8 70 578.4 600 0.0 1.9 6.7 58
10/10/2019 10:00 10.2 69 599.0 600 0.0 1.3 4.6 74
10/10/2019 10:10 10.6 66 617.1 600 0.0 1.6 5.7 67
10/10/2019 10:20 12.7 62 631.6 600 0.0 1.0 3.7 127
10/10/2019 10:30 12.2 60 645.9 600 0.0 1.2 4.3 151
10/10/2019 10:40 12.8 63 659.9 600 0.0 1.2 4.4 159
10/10/2019 10:50 13.0 62 671.3 600 0.0 0.8 2.7 91
10/10/2019 11:00 13.8 58 680.4 600 0.0 1.3 4.7 150
10/10/2019 11:10 13.4 61 689.3 600 0.0 0.6 2.2 182
10/10/2019 11:20 12.8 62 697.1 600 0.0 0.9 3.3 170
10/10/2019 11:30 14.2 56 702.4 600 0.0 1.4 5.1 175
10/10/2019 11:40 15.2 56 707.5 600 0.0 2.1 7.6 173
10/10/2019 11:50 14.0 58 710.8 600 0.0 1.2 4.2 181
10/10/2019 12:00 13.6 60 710.3 600 0.0 1.0 3.7 185
10/10/2019 12:10 14.0 57 709.6 600 0.0 1.8 6.3 204
10/10/2019 12:20 13.9 57 706.5 600 0.0 1.2 4.4 213
10/10/2019 12:30 14.2 50 702.8 600 0.0 1.8 6.4 190
10/10/2019 12:40 13.7 56 695.6 600 0.0 1.0 3.6 244
10/10/2019 12:50 12.9 55 685.9 600 0.0 1.1 3.8 261
10/10/2019 13:00 16.4 45 676.5 600 0.0 1.9 6.7 209
10/10/2019 13:10 13.8 50 668.0 600 0.0 1.1 3.9 231
10/10/2019 13:20 14.4 50 655.0 600 0.0 0.9 3.2 216
10/10/2019 13:30 16.1 43 639.6 600 0.0 1.8 6.5 196
10/10/2019 13:40 15.2 44 626.5 600 0.0 1.7 6.2 196
10/10/2019 13:50 16.9 41 609.4 600 0.0 1.9 6.7 192
10/10/2019 14:00 16.1 41 590.4 600 0.0 1.3 4.5 201
10/10/2019 14:10 15.9 39 564.5 600 0.0 1.7 6.2 185
10/10/2019 14:20 16.2 36 546.3 600 0.0 2.6 9.3 200
10/10/2019 14:30 16.4 37 523.0 600 0.0 2.5 8.9 183
10/10/2019 14:40 16.0 36 491.9 600 0.0 1.9 6.8 181
10/10/2019 14:50 15.3 38 468.2 600 0.0 1.5 5.5 183
10/10/2019 15:00 15.2 35 443.8 600 0.0 1.7 6.3 193
10/10/2019 15:10 15.7 39 416.2 600 0.0 1.7 6.3 186
10/10/2019 15:20 15.4 39 387.7 600 0.0 1.6 5.9 198
10/10/2019 15:30 14.8 41 302.2 484 0.0 1.1 4.0 184
10/10/2019 15:40 15.4 38 163.0 190 0.0 1.9 6.8 208
10/10/2019 15:50 14.7 37 171.1 366 0.0 1.8 6.6 194
10/10/2019 16:00 14.2 39 105.5 94 0.0 2.0 7.1 179
10/10/2019 16:10 14.0 37 118.9 202 0.0 2.7 9.8 197
10/10/2019 16:20 13.8 37 117.8 254 0.0 2.9 10.5 196
10/10/2019 16:30 14.0 40 122.1 374 0.0 2.7 9.6 193
10/10/2019 16:40 13.9 41 41.8 0 0.0 3.1 11.3 201
10/10/2019 16:50 13.3 42 51.7 112 0.0 3.1 11.3 198
10/10/2019 17:00 13.1 37 56.5 460 0.0 2.3 8.3 196
10/10/2019 17:10 13.0 42 52.1 548 0.0 3.3 11.8 193
10/10/2019 17:20 13.5 36 36.0 488 0.0 3.6 13.1 191
10/10/2019 17:30 12.9 33 20.5 0 0.0 4.3 15.3 181
10/10/2019 17:40 13.0 38 2.2 0 0.0 4.1 14.8 188
10/10/2019 17:50 13.0 41 0.0 0 0.0 4.2 15.3 196
10/10/2019 18:00 12.7 44 0.0 0 0.0 4.4 16.0 201
10/10/2019 18:10 12.6 45 0.0 0 0.0 4.3 15.3 201
10/10/2019 18:20 12.3 46 0.0 0 0.0 3.9 13.9 196
10/10/2019 18:30 12.1 49 0.0 0 0.0 3.6 13.0 196
10/10/2019 18:40 12.4 43 0.0 0 0.0 3.6 12.8 206
10/10/2019 18:50 12.9 42 0.0 0 0.0 4.5 16.3 185
10/10/2019 19:00 12.9 44 0.0 0 0.0 4.8 17.4 184
10/10/2019 19:10 12.0 42 0.0 0 0.0 5.0 18.1 178
10/10/2019 19:20 12.5 47 0.0 0 0.0 5.2 18.5 177
10/10/2019 19:30 12.1 55 0.0 0 0.0 5.4 19.4 183
10/10/2019 19:40 11.2 55 0.0 0 0.0 5.4 19.5 180
10/10/2019 19:50 11.6 53 0.0 0 0.0 6.5 23.4 181
10/10/2019 20:00 11.3 54 0.0 0 0.0 7.4 26.5 185
10/10/2019 20:10 11.0 54 0.0 0 0.0 7.1 25.6 186
10/10/2019 20:20 11.2 53 0.0 0 0.0 7.3 26.2 184
10/10/2019 20:30 11.1 55 0.0 0 0.0 6.7 24.2 184
10/10/2019 20:40 11.3 56 0.0 0 0.0 7.5 26.8 184
10/10/2019 20:50 11.4 57 0.0 0 0.0 8.0 28.6 185
10/10/2019 21:00 11.4 58 0.0 0 0.0 8.2 29.4 186
10/10/2019 21:10 10.8 58 0.0 0 0.0 7.7 27.5 177
10/10/2019 21:20 11.4 55 0.0 0 0.0 7.7 27.6 173
10/10/2019 21:30 11.2 53 0.0 0 0.0 8.2 29.5 171
10/10/2019 21:40 11.4 55 0.0 0 0.0 8.3 30.0 170
10/10/2019 21:50 11.0 58 0.0 0 0.0 9.3 33.3 176
10/10/2019 22:00 11.2 59 0.0 0 0.0 9.4 33.7 174
10/10/2019 22:10 11.4 58 0.0 0 0.0 8.8 31.6 172
10/10/2019 22:20 11.2 57 0.0 0 0.0 8.4 30.4 171
10/10/2019 22:30 10.8 56 0.0 0 0.0 8.4 30.3 171
10/10/2019 22:40 11.5 55 0.0 0 0.0 8.2 29.4 172
10/10/2019 22:50 11.3 55 0.0 0 0.0 7.4 26.6 171
10/10/2019 23:00 11.0 55 0.0 0 0.0 7.6 27.2 175
10/10/2019 23:10 11.2 56 0.0 0 0.0 7.9 28.5 174
10/10/2019 23:20 11.1 57 0.0 0 0.0 8.6 30.9 179
10/10/2019 23:30 11.1 57 0.0 0 0.0 9.3 33.4 178
10/10/2019 23:40 10.6 57 0.0 0 0.0 9.0 32.5 173
10/10/2019 23:50 10.7 60 0.0 0 0.0 9.2 32.9 167
Anterior Página 1 de 1 Siguiente
Los datos de precipitación registrados en estaciones que están en cumbres son inferiores a lo real, como consecuencia del efecto del viento y de la nieve.


NOTA: Tipo de datos según el color:
   - Valores diarios o 10 minutos correctos
   - Valores diarios calculados a partir de un número de datos 10 minutos menor que 144 y mayor que 120, o de un número de datos semihorarios menor que 48 y mayor que 40 (caso de las estaciones de Riegos de Navarra y del MARM)
   - Valores diez minutos estimados


Contacto        Enlaces        Aviso legal